地図

経路データ

SID SEASON NUMBER BASIN SUBBASIN NAME ISO_TIME NATURE LAT LON WMO_WIND WMO_PRES WMO_AGENCY TRACK_TYPE DIST2LAND LANDFALL IFLAG USA_AGENCY USA_ATCF_ID USA_LAT USA_LON USA_RECORD USA_STATUS USA_WIND USA_PRES USA_SSHS USA_R34_NE USA_R34_SE USA_R34_SW USA_R34_NW USA_R50_NE USA_R50_SE USA_R50_SW USA_R50_NW USA_R64_NE USA_R64_SE USA_R64_SW USA_R64_NW USA_POCI USA_ROCI USA_RMW USA_EYE TOKYO_LAT TOKYO_LON TOKYO_GRADE TOKYO_WIND TOKYO_PRES TOKYO_R50_DIR TOKYO_R50_LONG TOKYO_R50_SHORT TOKYO_R30_DIR TOKYO_R30_LONG TOKYO_R30_SHORT TOKYO_LAND CMA_LAT CMA_LON CMA_CAT CMA_WIND CMA_PRES HKO_LAT HKO_LON HKO_CAT HKO_WIND HKO_PRES NEWDELHI_LAT NEWDELHI_LON NEWDELHI_GRADE NEWDELHI_WIND NEWDELHI_PRES NEWDELHI_CI NEWDELHI_DP NEWDELHI_POCI REUNION_LAT REUNION_LON REUNION_TYPE REUNION_WIND REUNION_PRES REUNION_TNUM REUNION_CI REUNION_RMW REUNION_R34_NE REUNION_R34_SE REUNION_R34_SW REUNION_R34_NW REUNION_R50_NE REUNION_R50_SE REUNION_R50_SW REUNION_R50_NW REUNION_R64_NE REUNION_R64_SE REUNION_R64_SW REUNION_R64_NW BOM_LAT BOM_LON BOM_TYPE BOM_WIND BOM_PRES BOM_TNUM BOM_CI BOM_RMW BOM_R34_NE BOM_R34_SE BOM_R34_SW BOM_R34_NW BOM_R50_NE BOM_R50_SE BOM_R50_SW BOM_R50_NW BOM_R64_NE BOM_R64_SE BOM_R64_SW BOM_R64_NW BOM_ROCI BOM_POCI BOM_EYE BOM_POS_METHOD BOM_PRES_METHOD NADI_LAT NADI_LON NADI_CAT NADI_WIND NADI_PRES WELLINGTON_LAT WELLINGTON_LON WELLINGTON_WIND WELLINGTON_PRES DS824_LAT DS824_LON DS824_STAGE DS824_WIND DS824_PRES TD9636_LAT TD9636_LON TD9636_STAGE TD9636_WIND TD9636_PRES TD9635_LAT TD9635_LON TD9635_WIND TD9635_PRES TD9635_ROCI NEUMANN_LAT NEUMANN_LON NEUMANN_CLASS NEUMANN_WIND NEUMANN_PRES MLC_LAT MLC_LON MLC_CLASS MLC_WIND MLC_PRES USA_GUST BOM_GUST BOM_GUST_PER REUNION_GUST REUNION_GUST_PER USA_SEAHGT USA_SEARAD_NE USA_SEARAD_SE USA_SEARAD_SW USA_SEARAD_NW STORM_SPEED STORM_DIR
1992056S11102 1992 18 SI WA HARRIET:HEATHER 1992-02-24 18:00:00 TS -11.3000 101.600 30 1000 bom main 640 640 O_____O_____O_ jtwc_sh SH201992 -11.2000 101.500 25 -1 -11.5000 101.800 20 30 1000 2.50000 215 3 5 -11.2000 101.500 TC 25 7 279
1992056S11102 1992 18 SI WA HARRIET:HEATHER 1992-02-24 21:00:00 TS -11.2459 101.255 main 653 653 P_____P_____P_ SH201992 -11.2026 101.198 25 -1 -11.3327 101.370 20 32 997 215 -11.2026 101.198 TC 25 7 279
1992056S11102 1992 18 SI WA HARRIET:HEATHER 1992-02-25 00:00:00 TS -11.2000 100.933 35 995 bom main 682 682 O_____O_____O_ jtwc_sh SH201992 -11.2000 100.900 25 -1 -11.2000 101.000 30 35 995 3.00000 215 3 5 -11.2000 100.900 TC 25 6 277
1992056S11102 1992 18 SI WA HARRIET:HEATHER 1992-02-25 03:00:00 TS -11.1708 100.648 main 706 706 P_____P_____P_ SH201992 -11.1924 100.607 25 -1 -11.1274 100.728 30 35 995 215 -11.1924 100.607 TC 25 6 273
1992056S11102 1992 18 SI WA HARRIET:HEATHER 1992-02-25 06:00:00 TS -11.1667 100.367 35 995 bom main 721 721 O_____O_____O_ jtwc_sh SH201992 -11.2000 100.300 25 -1 -11.1000 100.500 30 35 995 3.00000 215 3 5 -11.2000 100.300 TC 25 6 268
1992056S11102 1992 18 SI WA HARRIET:HEATHER 1992-02-25 09:00:00 TS -11.1950 100.055 main 746 746 P_____P_____P_ SH201992 -11.2500 99.9576 27 -1 -11.0850 100.250 30 35 995 215 -11.2500 99.9576 TC 27 6 264
1992056S11102 1992 18 SI WA HARRIET:HEATHER 1992-02-25 12:00:00 TS -11.2333 99.7333 35 995 bom main 779 779 O_____O_____O_ jtwc_sh SH201992 -11.3000 99.6000 30 -1 -11.1000 100.000 30 35 995 3.00000 215 3 5 -11.3000 99.6000 TC 30 6 265
1992056S11102 1992 18 SI WA HARRIET:HEATHER 1992-02-25 15:00:00 TS -11.2475 99.4166 main 805 805 P_____P_____P_ SH201992 -11.3000 99.2500 30 -1 -11.1425 99.7500 30 35 995 215 -11.3000 99.2500 TC 30 6 267
1992056S11102 1992 18 SI WA HARRIET:HEATHER 1992-02-25 18:00:00 TS -11.2667 99.1000 35 995 bom main 838 838 O_____O_____O_ jtwc_sh SH201992 -11.3000 98.9000 30 -1 -11.2000 99.5000 30 35 995 3.00000 215 3 5 -11.3000 98.9000 TC 30 6 264
1992056S11102 1992 18 SI WA HARRIET:HEATHER 1992-02-25 21:00:00 TS -11.3091 98.7783 main 865 865 P_____P_____P_ SH201992 -11.3425 98.5425 32 -1 -11.2425 99.2500 30 35 995 215 -11.3425 98.5425 TC 32 6 261
1992056S11102 1992 18 SI WA HARRIET:HEATHER 1992-02-26 00:00:00 TS -11.3667 98.4667 35 995 bom main 898 898 O_____O_____O_ jtwc_sh SH201992 -11.4000 98.2000 35 0 -11.3000 99.0000 30 35 995 3.00000 215 3 5 -11.4000 98.2000 TC 35 6 258
1992056S11102 1992 18 SI WA HARRIET:HEATHER 1992-02-26 03:00:00 TS -11.4333 98.1758 main 925 925 P_____P_____P_ SH201992 -11.4575 97.8850 37 0 -11.3850 98.7575 30 37 992 215 -11.4575 97.8850 TC 37 6 256
1992056S11102 1992 18 SI WA HARRIET:HEATHER 1992-02-26 06:00:00 TS -11.5000 97.9000 40 990 bom main 957 957 O_____O_____O_ jtwc_sh SH201992 -11.5000 97.6000 40 0 -11.5000 98.5000 30 40 990 3.00000 215 3 5 -11.5000 97.6000 TC 40 6 257
1992056S11102 1992 18 SI WA HARRIET:HEATHER 1992-02-26 09:00:00 TS -11.5525 97.6283 main 986 986 P_____P_____P_ SH201992 -11.5000 97.3425 42 0 -11.6575 98.2001 30 45 987 215 -11.5000 97.3425 TC 42 5 259
1992056S11102 1992 18 SI WA HARRIET:HEATHER 1992-02-26 12:00:00 TS -11.6000 97.3667 50 985 bom main 999 999 O_____O_____O_ jtwc_sh SH201992 -11.5000 97.1000 45 0 -11.8000 97.9000 30 50 985 3.50000 215 3 5 -11.5000 97.1000 TC 45 5 259
1992056S11102 1992 18 SI WA HARRIET:HEATHER 1992-02-26 15:00:00 TS -11.6500 97.1167 main 1020 1020 P_____P_____P_ SH201992 -11.5425 96.8500 47 0 -11.8649 97.6499 30 52 982 228 -11.5425 96.8500 TC 47 5 258
1992056S11102 1992 18 SI WA HARRIET:HEATHER 1992-02-26 18:00:00 TS -11.7000 96.8667 55 980 bom main 1042 1042 O_____O_____O_ jtwc_sh SH201992 -11.6000 96.6000 50 0 -11.9000 97.4000 30 55 980 4.00000 242 3 5 -11.6000 96.6000 TC 50 5 259
1992056S11102 1992 18 SI WA HARRIET:HEATHER 1992-02-26 21:00:00 TS -11.7500 96.6025 main 1063 1063 P_____P_____P_ SH201992 -11.6500 96.3500 52 0 -11.9500 97.1075 30 57 979 242 -11.6500 96.3500 TC 52 5 259
1992056S11102 1992 18 SI WA HARRIET:HEATHER 1992-02-27 00:00:00 TS -11.8000 96.3333 60 978 bom main 1093 1093 O_____O_____O_ jtwc_sh SH201992 -11.7000 96.1000 55 0 -12.0000 96.8000 30 60 978 4.00000 242 3 5 -11.7000 96.1000 TC 55 5 259
1992056S11102 1992 18 SI WA HARRIET:HEATHER 1992-02-27 03:00:00 TS -11.8500 96.0592 main 1108 1108 P_____P_____P_ SH201992 -11.7500 95.8425 55 0 -12.0500 96.4925 30 62 976 242 -11.7500 95.8425 TC 55 5 259
1992056S11102 1992 18 SI WA HARRIET:HEATHER 1992-02-27 06:00:00 TS -11.9000 95.8000 65 975 bom main 1138 1138 O_____O_____O_ jtwc_sh SH201992 -11.8000 95.6000 55 0 -12.1000 96.2000 40 65 975 4.50000 242 3 5 -11.8000 95.6000 TC 55 5 258
1992056S11102 1992 18 SI WA HARRIET:HEATHER 1992-02-27 09:00:00 TS -11.9525 95.5783 main 1160 1160 P_____P_____P_ SH201992 -11.8500 95.3925 55 0 -12.1574 95.9500 40 67 972 242 -11.8500 95.3925 TC 55 4 254
1992056S11102 1992 18 SI WA HARRIET:HEATHER 1992-02-27 12:00:00 TS -12.0154 95.3769 70 970 bom main 1174 1174 O____OO_____O_ jtwc_sh SH201992 -11.9000 95.2000 55 0 -12.2000 95.5000 3 58 970 9.90000 4.50000 -12.2000 95.7000 40 70 970 4.50000 242 3 5 -11.9000 95.2000 TC 55 4 256
1992056S11102 1992 18 SI WA HARRIET:HEATHER 1992-02-27 15:00:00 TS -12.0582 95.1553 main 1197 1197 P____PP_____P_ SH201992 -11.9425 95.0000 57 0 -12.2526 95.2876 3 58 970 -12.1925 95.3999 40 72 967 242 -11.9425 95.0000 TC 57 4 257
1992056S11102 1992 18 SI WA HARRIET:HEATHER 1992-02-27 18:00:00 TS -12.1133 94.9400 75 965 bom main 1219 1219 O____OO_____O_ jtwc_sh SH201992 -12.0000 94.8000 60 0 -12.3000 95.1000 3 58 970 9.90000 4.50000 -12.2000 95.1000 40 75 965 4.50000 242 3 5 -12.0000 94.8000 TC 60 4 251
1992056S11102 1992 18 SI WA HARRIET:HEATHER 1992-02-27 21:00:00 TS -12.1993 94.7450 main 1242 1242 P____PP_____P_ SH201992 -12.0850 94.6000 62 0 -12.3424 94.9374 3 60 968 -12.2850 94.8425 40 77 962 242 -12.0850 94.6000 TC 62 4 245
1992056S11102 1992 18 SI WA HARRIET:HEATHER 1992-02-28 00:00:00 TS -12.3000 94.5250 80 960 bom main 1265 1265 O____OO_____O_ jtwc_sh SH201992 -12.2000 94.4000 65 1 -12.4000 94.7000 3 62 966 9.90000 4.50000 -12.4000 94.6000 40 80 960 5.00000 242 4 5 -12.2000 94.4000 TC 65 5 246
1992056S11102 1992 18 SI WA HARRIET:HEATHER 1992-02-28 03:00:00 TS -12.4100 94.2593 main 1288 1288 P____PP_____P_ SH201992 -12.3350 94.2075 67 1 -12.4776 94.2725 3 67 960 -12.4925 94.3500 40 82 957 242 -12.3350 94.2075 TC 67 6 245
1992056S11102 1992 18 SI WA HARRIET:HEATHER 1992-02-28 06:00:00 TS -12.5500 93.9750 85 955 bom main 1319 1319 O____OO_____O_ jtwc_sh SH201992 -12.5000 94.0000 70 1 -12.6000 93.8000 4 72 954 9.90000 5.00000 -12.6000 94.1000 40 85 955 5.00000 242 4 5 -12.5000 94.0000 TC 70 6 240
1992056S11102 1992 18 SI WA HARRIET:HEATHER 1992-02-28 09:00:00 TS -12.7338 93.6869 main 1358 1358 P____PP_____P_ SH201992 -12.7000 93.7500 75 1 -12.7925 93.4051 4 72 954 -12.7425 93.8425 40 85 955 242 -12.7000 93.7500 TC 75 7 235
1992056S11102 1992 18 SI WA HARRIET:HEATHER 1992-02-28 12:00:00 TS -12.9250 93.4250 85 955 bom main 1393 1393 O____OO_____O_ jtwc_sh SH201992 -12.9000 93.5000 80 1 -13.0000 93.1000 4 72 954 9.90000 5.00000 -12.9000 93.6000 40 85 955 5.00000 242 5 4 5 -12.9000 93.5000 TC 80 6 233
1992056S11102 1992 18 SI WA HARRIET:HEATHER 1992-02-28 15:00:00 TS -13.0787 93.2243 main 1423 1423 P____PP_____P_ SH201992 -13.0574 93.2999 82 1 -13.1574 92.9049 4 72 954 -13.0425 93.3924 40 87 950 242 -13.0574 93.2999 TC 82 5 230
1992056S11102 1992 18 SI WA HARRIET:HEATHER 1992-02-28 18:00:00 TS -13.2250 93.0500 90 945 bom main 1438 1438 O____OO_____O_ jtwc_sh SH201992 -13.2000 93.1000 85 2 -13.3000 92.8000 4 72 954 9.90000 5.00000 -13.2000 93.2000 40 90 945 5.50000 242 9 4 5 -13.2000 93.1000 TC 85 5 229
1992056S11102 1992 18 SI WA HARRIET:HEATHER 1992-02-28 21:00:00 TS -13.3856 92.8662 main 1467 1467 P____PP_____P_ SH201992 -13.3500 92.8575 87 2 -13.4500 92.7499 4 72 954 -13.3925 93.0000 40 90 940 242 -13.3500 92.8575 TC 87 5 228
1992056S11102 1992 18 SI WA HARRIET:HEATHER 1992-02-29 00:00:00 TS -13.5500 92.6750 90 935 bom main 1487 1497 O____OO_____O_ jtwc_sh SH201992 -13.5000 92.6000 90 2 -13.6000 92.7000 4 72 954 9.90000 5.00000 -13.6000 92.8000 40 90 935 5.50000 242 10 4 5 -13.5000 92.6000 TC 90 5 230
1992056S11102 1992 18 SI WA HARRIET:HEATHER 1992-02-29 03:00:00 TS -13.7087 92.4700 main 1517 1517 P____PP_____P_ SH201992 -13.6425 92.3425 92 2 -13.7500 92.5800 4 72 954 -13.7999 92.6149 40 90 935 242 -13.6425 92.3425 TC 92 5 232
1992056S11102 1992 18 SI WA HARRIET:HEATHER 1992-02-29 06:00:00 TS -13.8750 92.2500 90 935 bom main 1547 1547 O____OO_____O_ jtwc_sh SH201992 -13.8000 92.1000 95 2 -13.9000 92.4000 4 72 954 9.90000 5.00000 -14.0000 92.4000 40 90 935 5.50000 242 10 4 5 -13.8000 92.1000 TC 95 6 231
1992056S11102 1992 18 SI WA HARRIET:HEATHER 1992-02-29 09:00:00 TS -14.0568 92.0218 main 1582 1582 P____PP_____P_ SH201992 -13.9925 91.8925 97 3 -14.0349 92.1874 4 77 947 -14.2075 92.1150 40 90 932 242 -13.9925 91.8925 TC 97 6 231
1992056S11102 1992 18 SI WA HARRIET:HEATHER 1992-02-29 12:00:00 TS -14.2500 91.7750 90 930 bom main 1603 1603 O____OO_____O_ jtwc_sh SH201992 -14.2000 91.7000 100 3 -14.2000 91.9000 4 82 941 9.90000 5.50000 -14.4000 91.8000 40 90 930 5.50000 242 10 4 5 -14.2000 91.7000 TC 100 6 231
1992056S11102 1992 18 SI WA HARRIET:HEATHER 1992-02-29 15:00:00 TS -14.4575 91.5169 main 1648 1648 P____PP_____P_ SH201992 -14.4074 91.5224 102 3 -14.4500 91.5226 4 82 941 -14.5650 91.5000 40 90 930 242 -14.4074 91.5224 TC 102 7 233
1992056S11102 1992 18 SI WA HARRIET:HEATHER 1992-02-29 18:00:00 TS -14.6500 91.2250 90 930 bom main 1674 1684 O____OO_____O_ jtwc_sh SH201992 -14.6000 91.3000 105 3 -14.7000 91.1000 4 82 941 9.90000 5.50000 -14.7000 91.2000 40 90 930 5.50000 242 10 4 5 -14.6000 91.3000 TC 105 7 240
1992056S11102 1992 18 SI WA HARRIET:HEATHER 1992-02-29 21:00:00 TS -14.8100 90.8769 main 1710 1710 P____PP_____P_ SH201992 -14.7726 90.9651 107 3 -14.8876 90.6700 4 82 941 -14.8074 90.9074 40 92 930 255 -14.7726 90.9651 TC 107 7 248
1992056S11102 1992 18 SI WA HARRIET:HEATHER 1992-03-01 00:00:00 TS -14.9250 90.5250 95 930 bom main 1742 1742 O____OO_____O_ jtwc_sh SH201992 -14.9000 90.6000 110 3 -15.0000 90.3000 4 82 941 9.90000 5.50000 -14.9000 90.6000 40 95 930 5.50000 269 12 4 5 -14.9000 90.6000 TC 110 7 254
1992056S11102 1992 18 SI WA HARRIET:HEATHER 1992-03-01 03:00:00 TS -14.9899 90.2281 main 1769 1769 P____PP_____P_ SH201992 -14.9649 90.2924 112 3 -15.0224 90.0774 4 82 941 -15.0075 90.2500 40 97 930 269 -14.9649 90.2924 TC 112 6 260
1992056S11102 1992 18 SI MM HARRIET:HEATHER 1992-03-01 06:00:00 TS -15.0250 89.9500 100 930 bom main 1781 1781 O____OO_____O_ jtwc_sh SH201992 -15.0000 90.0000 115 4 -15.0000 89.9000 4 82 941 9.90000 5.50000 -15.1000 89.9000 40 100 930 6.00000 269 15 4 5 -15.0000 90.0000 TC 115 6 262
1992056S11102 1992 18 SI MM HARRIET:HEATHER 1992-03-01 09:00:00 TS -15.0700 89.6569 main 1809 1809 P____PP_____P_ SH201992 -15.0575 89.6925 117 4 -15.0000 89.6575 4 84 938 -15.1650 89.5850 40 102 930 269 -15.0575 89.6925 TC 117 6 262
1992056S11102 1992 18 SI MM HARRIET:HEATHER 1992-03-01 12:00:00 TS -15.1000 89.3750 105 930 bom main 1828 1828 O____OO_____O_ jtwc_sh SH201992 -15.1000 89.4000 120 4 -15.0000 89.4000 4 86 935 9.90000 5.50000 -15.2000 89.3000 40 105 930 6.00000 269 15 4 5 -15.1000 89.4000 TC 120 5 266
1992056S11102 1992 18 SI MM HARRIET:HEATHER 1992-03-01 15:00:00 TS -15.1075 89.1175 main 1847 1847 P____PP_____P_ SH201992 -15.1074 89.1425 120 4 -15.0075 89.1500 4 88 932 -15.2075 89.0350 40 105 932 269 -15.1074 89.1425 TC 120 5 270
1992056S11102 1992 18 SI MM HARRIET:HEATHER 1992-03-01 18:00:00 TS -15.1000 88.8750 105 935 bom main 1859 1859 O____OO_____O_ jtwc_sh SH201992 -15.1000 88.9000 120 4 -15.0000 88.9000 4 90 930 9.90000 6.00000 -15.2000 88.8000 40 105 935 6.00000 269 4 5 -15.1000 88.9000 TC 120 5 272
1992056S11102 1992 18 SI MM HARRIET:HEATHER 1992-03-01 21:00:00 TS -15.0931 88.6375 main 1879 1879 P____PP_____P_ SH201992 -15.1075 88.6500 120 4 -14.9500 88.6500 4 90 930 -15.2074 88.6000 40 105 935 269 -15.1075 88.6500 TC 120 5 273
1992056S11102 1992 18 SI MM HARRIET:HEATHER 1992-03-02 00:00:00 TS -15.0750 88.4000 105 935 bom main 1892 1892 O____OO_____O_ jtwc_sh SH201992 -15.1000 88.4000 120 4 -14.9000 88.4000 4 90 930 9.90000 6.00000 -15.2000 88.4000 40 105 935 6.00000 269 4 5 -15.1000 88.4000 TC 120 5 276
1992056S11102 1992 18 SI MM HARRIET:HEATHER 1992-03-02 03:00:00 TS -15.0450 88.1481 main 1904 1904 P____PP_____P_ SH201992 -15.0575 88.1425 120 4 -14.8999 88.1576 4 88 932 -15.1650 88.1500 40 102 937 269 -15.0575 88.1425 TC 120 5 279
1992056S11102 1992 18 SI MM HARRIET:HEATHER 1992-03-02 06:00:00 TS -15.0000 87.9000 100 940 bom main 1918 1918 O____OO_____O_ jtwc_sh SH201992 -15.0000 87.9000 120 4 -14.9000 87.9000 4 86 935 9.90000 5.50000 -15.1000 87.9000 40 100 940 6.00000 269 4 5 -15.0000 87.9000 TC 120 5 283
1992056S11102 1992 18 SI MM HARRIET:HEATHER 1992-03-02 09:00:00 TS -14.9394 87.6675 main 1923 1923 P____PP_____P_ SH201992 -14.9500 87.6925 117 4 -14.8500 87.5925 4 84 938 -15.0075 87.6925 40 97 940 269 -14.9500 87.6925 TC 117 5 286
1992056S11102 1992 18 SI MM HARRIET:HEATHER 1992-03-02 12:00:00 TS -14.8750 87.4500 95 940 bom main 1937 1936 O____OO_____O_ jtwc_sh SH201992 -14.9000 87.5000 115 4 -14.8000 87.3000 4 82 941 9.90000 5.50000 -14.9000 87.5000 40 95 940 5.50000 269 4 5 -14.9000 87.5000 TC 115 4 287
1992056S11102 1992 18 SI MM HARRIET:HEATHER 1992-03-02 15:00:00 TS -14.8119 87.2406 main 1950 1950 P____PP_____P_ SH201992 -14.8425 87.2925 115 4 -14.7850 87.0775 4 77 947 -14.7775 87.3000 40 92 940 269 -14.8425 87.2925 TC 115 4 284
1992056S11102 1992 18 SI MM HARRIET:HEATHER 1992-03-02 18:00:00 TS -14.7750 87.0500 90 940 bom main 1958 1958 O____OO_____O_ jtwc_sh SH201992 -14.8000 87.1000 115 4 -14.8000 86.9000 4 72 954 9.90000 5.00000 -14.7000 87.1000 40 90 940 5.50000 269 4 5 -14.8000 87.1000 TC 115 4 274
1992056S11102 1992 18 SI MM HARRIET:HEATHER 1992-03-02 21:00:00 TS -14.7850 86.8781 main 1972 1972 P____PP_____P_ SH201992 -14.7850 86.9425 112 3 -14.8425 86.7350 4 72 954 -14.7275 86.8926 40 90 940 269 -14.7850 86.9425 TC 112 3 261
1992056S11102 1992 18 SI MM HARRIET:HEATHER 1992-03-03 00:00:00 TS -14.8250 86.7250 90 940 bom main 1987 1987 O____OO_____O_ jtwc_sh SH201992 -14.8000 86.8000 110 3 -14.9000 86.6000 4 72 954 9.90000 5.00000 -14.8000 86.7000 40 90 940 5.50000 269 4 5 -14.8000 86.8000 TC 110 3 254
1992056S11102 1992 18 SI MM HARRIET:HEATHER 1992-03-03 03:00:00 TS -14.8675 86.5856 main 2003 2003 P____PP_____P_ SH201992 -14.8425 86.6500 105 3 -14.9425 86.4925 4 72 954 -14.8425 86.5500 40 90 940 269 -14.8425 86.6500 TC 105 3 249
1992056S11102 1992 18 SI MM HARRIET:HEATHER 1992-03-03 06:00:00 TS -14.9250 86.4500 90 940 bom main 2010 2017 O____OO_____O_ jtwc_sh SH201992 -14.9000 86.5000 100 3 -15.0000 86.4000 4 72 954 9.90000 5.00000 -14.9000 86.4000 40 90 940 5.50000 269 4 5 -14.9000 86.5000 TC 100 3 245
1992056S11102 1992 18 SI MM HARRIET:HEATHER 1992-03-03 09:00:00 TS -14.9944 86.2981 main 2033 2033 P____PP_____P_ SH201992 -14.9425 86.3500 97 3 -15.1000 86.2925 4 67 960 -14.9925 86.2000 40 90 940 269 -14.9425 86.3500 TC 97 3 243
1992056S11102 1992 18 SI MM HARRIET:HEATHER 1992-03-03 12:00:00 TS -15.0750 86.1500 90 940 bom main 2048 2056 O____OO_____O_ jtwc_sh SH201992 -15.0000 86.2000 95 2 -15.2000 86.2000 3 62 966 9.90000 4.50000 -15.1000 86.0000 40 90 940 5.50000 269 4 5 -15.0000 86.2000 TC 95 3 239
1992056S11102 1992 18 SI MM HARRIET:HEATHER 1992-03-03 15:00:00 TS -15.1550 86.0212 main 2071 2071 P____PP_____P_ SH201992 -15.0850 86.0500 92 2 -15.2575 86.1500 3 62 966 -15.1925 85.8350 40 90 942 269 -15.0850 86.0500 TC 92 3 234
1992056S11102 1992 18 SI MM HARRIET:HEATHER 1992-03-03 18:00:00 TS -15.2500 85.9000 90 945 bom main 2079 2087 O____OO_____O_ jtwc_sh SH201992 -15.2000 85.9000 90 2 -15.3000 86.1000 3 62 966 9.90000 4.50000 -15.3000 85.7000 40 90 945 5.50000 269 4 5 -15.2000 85.9000 TC 90 3 229
1992056S11102 1992 18 SI MM HARRIET:HEATHER 1992-03-03 21:00:00 TS -15.3619 85.7768 main 2103 2103 P____PP_____P_ SH201992 -15.3350 85.7500 87 2 -15.3275 86.0075 3 62 966 -15.4500 85.6000 40 90 945 269 -15.3350 85.7500 TC 87 3 224
1992056S11102 1992 18 SI MM HARRIET:HEATHER 1992-03-04 00:00:00 TS -15.5000 85.6500 90 945 bom main 2118 2118 O____OO_____O_ jtwc_sh SH201992 -15.5000 85.6000 85 2 -15.4000 85.9000 3 62 966 9.90000 4.50000 -15.6000 85.5000 40 90 945 5.50000 269 4 5 -15.5000 85.6000 TC 85 4 222
1992056S11102 1992 18 SI MM HARRIET:HEATHER 1992-03-04 03:00:00 TS -15.6488 85.5106 main 2141 2141 P____PP_____P_ SH201992 -15.6775 85.4425 82 1 -15.5475 85.8074 3 59 969 -15.6925 85.3500 40 87 947 269 -15.6775 85.4425 TC 82 4 217
1992056S11102 1992 18 SI MM HARRIET:HEATHER 1992-03-04 06:00:00 TS -15.8500 85.3750 85 950 bom main 2164 2164 O____OO_____O_ jtwc_sh SH201992 -15.9000 85.3000 80 1 -15.8000 85.7000 3 56 972 9.90000 4.00000 -15.8000 85.2000 40 85 950 5.00000 269 4 5 -15.9000 85.3000 TC 80 5 208
1992056S11102 1992 18 SI MM HARRIET:HEATHER 1992-03-04 09:00:00 TS -16.1294 85.2513 main 2196 2196 P____PP_____P_ SH201992 -16.1850 85.1850 80 1 -16.1775 85.5501 3 56 972 -15.9700 85.0850 40 85 950 269 -16.1850 85.1850 TC 80 6 200
1992056S11102 1992 18 SI MM HARRIET:HEATHER 1992-03-04 12:00:00 TS -16.4500 85.1500 85 950 bom main 2228 2236 O____OO_____O_ jtwc_sh SH201992 -16.5000 85.1000 80 1 -16.6000 85.4000 3 56 972 9.90000 4.00000 -16.2000 85.0000 40 85 950 5.00000 269 4 5 -16.5000 85.1000 TC 80 7 196
1992056S11102 1992 18 SI MM HARRIET:HEATHER 1992-03-04 15:00:00 TS -16.7681 85.0688 main 2267 2267 P____PP_____P_ SH201992 -16.8075 85.0350 82 1 -16.9800 85.2775 3 59 969 -16.4775 84.9275 40 85 947 269 -16.8075 85.0350 TC 82 6 191
1992056S11102 1992 18 SI MM HARRIET:HEATHER 1992-03-04 18:00:00 TS -17.0750 85.0250 85 945 bom main 2299 2299 O____OO_____O_ jtwc_sh SH201992 -17.1000 85.0000 85 2 -17.3000 85.2000 3 62 966 9.90000 4.50000 -16.8000 84.9000 40 85 945 5.00000 269 4 5 -17.1000 85.0000 TC 85 6 185
1992056S11102 1992 18 SI MM HARRIET:HEATHER 1992-03-04 21:00:00 TS -17.3450 85.0225 main 2316 2316 P____PP_____P_ SH201992 -17.3575 84.9850 87 2 -17.5150 85.1849 3 72 953 -17.1500 84.9349 40 85 945 269 -17.3575 84.9850 TC 87 5 0
1992056S11102 1992 18 SI MM HARRIET:HEATHER 1992-03-05 00:00:00 TS -17.6000 85.0500 85 945 bom main 2333 2333 O____OO_____O_ jtwc_sh SH201992 -17.6000 85.0000 90 2 -17.7000 85.2000 4 82 941 9.90000 5.50000 -17.5000 85.0000 40 85 945 5.00000 269 4 5 -17.6000 85.0000 TC 90 5 173
1992056S11102 1992 18 SI MM HARRIET:HEATHER 1992-03-05 03:00:00 TS -17.8587 85.0837 main 2358 2358 P____PP_____P_ SH201992 -17.8425 85.0425 90 2 -17.9425 85.1925 4 86 935 -17.8075 85.0575 40 90 940 269 -17.8425 85.0425 TC 90 5 173
1992056S11102 1992 18 SI MM HARRIET:HEATHER 1992-03-05 06:00:00 TS -18.1250 85.1250 95 935 bom main 2375 2375 O____OO_____O_ jtwc_sh SH201992 -18.1000 85.1000 90 2 -18.2000 85.2000 4 90 930 9.90000 6.00000 -18.1000 85.1000 40 95 935 5.50000 269 4 5 -18.1000 85.1000 TC 90 6 172
1992056S11102 1992 18 SI MM HARRIET:HEATHER 1992-03-05 09:00:00 TS -18.4050 85.1513 main 2394 2394 P____PP_____P_ SH201992 -18.3925 85.1425 90 2 -18.4425 85.2425 4 90 930 -18.3925 85.0777 40 92 937 269 -18.3925 85.1425 TC 90 6 173
1992056S11102 1992 18 SI MM HARRIET:HEATHER 1992-03-05 12:00:00 TS -18.7000 85.2000 90 940 bom main 2420 2420 O____OO_____O_ jtwc_sh SH201992 -18.7000 85.2000 90 2 -18.7000 85.3000 4 90 930 9.90000 6.00000 -18.7000 85.1000 40 90 940 5.50000 269 4 5 -18.7000 85.2000 TC 90 6 168
1992056S11102 1992 18 SI MM HARRIET:HEATHER 1992-03-05 15:00:00 TS -19.0069 85.2900 main 2439 2439 P____PP_____P_ SH201992 -18.9925 85.2776 90 2 -18.9850 85.3277 4 90 930 -19.0576 85.2773 40 90 940 269 -18.9925 85.2776 TC 90 7 161
1992056S11102 1992 18 SI MM HARRIET:HEATHER 1992-03-05 18:00:00 TS -19.3250 85.4250 90 940 bom main 2459 2459 O____OO_____O_ jtwc_sh SH201992 -19.3000 85.4000 90 2 -19.3000 85.4000 4 90 930 9.90000 6.00000 -19.4000 85.5000 40 90 940 5.50000 269 4 5 -19.3000 85.4000 TC 90 7 156
1992056S11102 1992 18 SI MM HARRIET:HEATHER 1992-03-05 21:00:00 TS -19.6387 85.5845 main 2472 2472 P____PP_____P_ SH201992 -19.6350 85.5701 90 2 -19.6425 85.5625 4 86 935 -19.6424 85.6353 40 90 940 269 -19.6350 85.5701 TC 90 7 151
1992056S11102 1992 18 SI MM HARRIET:HEATHER 1992-03-06 00:00:00 TS -19.9750 85.8000 90 940 bom main 2495 2495 O____OO_____O_ jtwc_sh SH201992 -20.0000 85.8000 90 2 -20.0000 85.8000 4 82 941 9.90000 5.50000 -19.9000 85.8000 40 90 940 5.50000 269 4 5 -20.0000 85.8000 TC 90 8 147
1992056S11102 1992 18 SI MM HARRIET:HEATHER 1992-03-06 03:00:00 TS -20.3381 86.0684 main 2504 2504 P____PP_____P_ SH201992 -20.3849 86.0702 90 2 -20.3199 86.0704 4 82 941 -20.2625 86.0627 40 87 942 269 -20.3849 86.0702 TC 90 10 144
1992056S11102 1992 18 SI MM HARRIET:HEATHER 1992-03-06 06:00:00 TS -20.7500 86.4000 85 945 bom main 2523 2523 O____OO_____O_ jtwc_sh SH201992 -20.8000 86.4000 90 2 -20.7000 86.4000 4 82 941 9.90000 5.50000 -20.7000 86.4000 40 85 945 5.00000 269 4 5 -20.8000 86.4000 TC 90 11 143
1992056S11102 1992 18 SI MM HARRIET:HEATHER 1992-03-06 09:00:00 TS -21.2092 86.7648 main 2547 2547 P____PP_____P_ SH201992 -21.2199 86.7704 90 2 -21.2272 86.7478 4 77 947 -21.1699 86.7703 40 82 947 269 -21.2199 86.7704 TC 90 12 143
1992056S11102 1992 18 SI MM HARRIET:HEATHER 1992-03-06 12:00:00 TS -21.7250 87.2000 80 950 bom main 2553 2548 O____OO_____O_ jtwc_sh SH201992 -21.7000 87.2000 90 2 -21.8000 87.2000 4 72 954 9.90000 5.00000 -21.7000 87.2000 40 80 950 5.00000 269 4 5 -21.7000 87.2000 TC 90 14 140
1992056S11102 1992 18 SI MM HARRIET:HEATHER 1992-03-06 15:00:00 TS -22.2737 87.7098 main 2555 2546 P____PP_____P_ SH201992 -22.2548 87.6632 90 2 -22.3079 87.8349 4 72 954 -22.2774 87.6778 40 80 952 255 -22.2548 87.6632 TC 90 15 139
1992056S11102 1992 18 SI MM HARRIET:HEATHER 1992-03-06 18:00:00 TS -22.8750 88.2750 80 955 bom main 2549 2484 O____OO_____O_ jtwc_sh SH201992 -22.9000 88.2000 90 2 -22.8000 88.5000 4 72 954 9.90000 5.00000 -22.9000 88.2000 40 80 955 5.00000 242 4 5 -22.9000 88.2000 TC 90 16 140
1992056S11102 1992 18 SI MM HARRIET:HEATHER 1992-03-06 21:00:00 TS -23.5053 88.8391 main 2484 2409 P____PP_____P_ SH201992 -23.6121 88.7985 87 2 -23.2773 89.0529 4 72 954 -23.5194 88.7064 40 77 957 242 -23.6121 88.7985 TC 87 17 141
1992056S11102 1992 18 SI MM HARRIET:HEATHER 1992-03-07 00:00:00 TS -24.2000 89.4500 75 960 bom main 2399 2326 O____OO_____O_ jtwc_sh SH201992 -24.4000 89.5000 85 2 -23.8000 89.5000 4 72 954 9.90000 5.00000 -24.2000 89.3000 40 75 960 4.50000 242 3 5 -24.4000 89.5000 TC 85 19 141
1992056S11102 1992 18 SI WA HARRIET:HEATHER 1992-03-07 03:00:00 TS -24.9516 90.1137 main 2325 2244 P____PP_____P_ SH201992 -25.2048 90.3065 82 1 -24.4270 89.7936 4 67 960 -24.9699 90.0481 40 75 960 242 -25.2048 90.3065 TC 82 20 141
1992056S11102 1992 18 SI WA HARRIET:HEATHER 1992-03-07 06:00:00 TS -25.7750 90.8500 75 960 bom main 2233 2165 O____OO_____O_ jtwc_sh SH201992 -26.1000 91.2000 80 1 -25.1000 90.1000 3 62 966 9.90000 4.50000 -25.8000 90.9000 40 75 960 242 3 5 -26.1000 91.2000 TC 80 21 141
1992056S11102 1992 18 SI WA HARRIET:HEATHER 1992-03-07 09:00:00 TS -26.6056 91.5870 main 2156 2062 P____PP_____P_ SH201992 -27.1185 92.0849 77 1 -25.6432 90.4979 3 62 966 -26.5422 91.6803 40 72 962 228 -27.1185 92.0849 TC 77 23 140
1992056S11102 1992 18 SI WA HARRIET:HEATHER 1992-03-07 12:00:00 TS -27.5750 92.5250 70 965 bom main 2062 1947 O____OO_____O_ jtwc_sh SH201992 -28.2000 93.1000 75 1 -26.4000 91.2000 3 62 966 9.90000 4.50000 -27.5000 92.7000 40 70 965 215 3 5 -28.2000 93.1000 TC 75 29 138
1992056S11102 1992 18 SI WA HARRIET:HEATHER 1992-03-07 15:00:00 TS -28.7636 93.8076 main 1938 1808 P____PP_____P_ SH201992 -29.2499 94.3415 72 1 -27.6283 92.3279 3 62 966 -28.9263 94.2197 40 67 967 215 -29.2499 94.3415 TC 72 36 135
1992056S11102 1992 18 SI WA HARRIET:HEATHER 1992-03-07 18:00:00 TS -30.1133 95.4200 65 970 bom main 1800 1679 O____OO_____O_ jtwc_sh SH201992 -30.3000 95.7000 70 1 -29.1000 93.9000 3 62 966 9.90000 4.50000 -30.5000 96.0000 40 65 970 215 3 5 -30.3000 95.7000 TC 70 38 133
1992056S11102 1992 18 SI WA HARRIET:HEATHER 1992-03-07 21:00:00 TS -31.3844 97.0571 main 1673 1528 P____PP_____P_ SH201992 -31.3486 97.0380 65 1 -30.5728 95.8364 3 59 969 -31.8617 97.7055 40 60 972 215 -31.3486 97.0380 TC 65 38 132
1992056S11102 1992 18 SI WA HARRIET:HEATHER 1992-03-08 00:00:00 TS -32.6154 98.7077 55 975 bom main 1517 1362 O____OO_____O_ jtwc_sh SH201992 -32.4000 98.4000 60 0 -32.0000 98.0000 3 56 972 9.90000 4.00000 -33.2000 99.5000 51 55 975 215 3 5 -32.4000 98.4000 TC 60 36 132
1992056S11102 1992 18 SI WA HARRIET:HEATHER 1992-03-08 03:00:00 TS -33.7959 100.288 main 1352 1200 P_____P_____P_ SH201992 -33.4482 99.7812 57 0 3 -34.4912 101.302 51 52 977 201 -33.4482 99.7812 TC 57 36 131
1992056S11102 1992 18 SI WA HARRIET:HEATHER 1992-03-08 06:00:00 TS -35.0000 101.967 50 980 bom main 1191 1043 O_____O_____O_ jtwc_sh SH201992 -34.5000 101.200 55 0 -36.0000 103.500 51 50 980 188 3 5 -34.5000 101.200 TC 55 39 130
1992056S11102 1992 18 SI WA HARRIET:HEATHER 1992-03-08 09:00:00 TS -36.3395 103.934 main 1034 894 P_____P_____P_ SH201992 -35.5540 102.674 52 0 -37.9106 106.455 51 45 985 188 -35.5540 102.674 TC 52 43 129
1992056S11102 1992 18 SI WA HARRIET:HEATHER 1992-03-08 12:00:00 ET -37.7333 106.133 40 990 bom main 886 O_____O_____O_ jtwc_sh SH201992 -36.6000 104.200 50 0 -40.0000 110.000 51 40 990 188 3 5 -36.6000 104.200 EX 50 45 129

IBTrACS Databaseについて

本データベースは、米国NOAAが公開する1842年以降の世界の熱帯低気圧のベストトラックデータアーカイブInternational Best Track Archive for Climate Stewardship (IBTrACS)を、ウェブで閲覧しやすい形式に変換したものです。

最終更新日:2021-10-19